createdAt,value
2023-06-14T00:00:23.410Z,2620.00
2023-06-14T00:01:23.424Z,2618.00
2023-06-14T00:02:23.491Z,2625.00
2023-06-14T00:03:23.542Z,2624.00
2023-06-14T00:04:23.536Z,2613.00
2023-06-14T00:05:23.503Z,2613.00
2023-06-14T00:06:23.523Z,2627.00
2023-06-14T00:07:23.550Z,2618.00
2023-06-14T00:08:23.564Z,2622.00
2023-06-14T00:09:23.575Z,2619.00
2023-06-14T00:10:23.604Z,2613.00
2023-06-14T00:11:23.619Z,2610.00
2023-06-14T00:12:23.642Z,2620.00
2023-06-14T00:13:23.659Z,2602.00
2023-06-14T00:14:23.695Z,2603.00
2023-06-14T00:15:23.699Z,2602.00
2023-06-14T00:16:23.739Z,2606.00
2023-06-14T00:17:23.758Z,2596.00
2023-06-14T00:18:23.763Z,2599.00
2023-06-14T00:19:23.776Z,2587.00
2023-06-14T00:20:23.803Z,2588.00
2023-06-14T00:21:23.837Z,2573.00
2023-06-14T00:22:23.851Z,2590.00
2023-06-14T00:23:23.867Z,2586.00
2023-06-14T00:24:23.974Z,2584.00
2023-06-14T00:25:28.787Z,2580.00
2023-06-14T00:26:24.912Z,2581.00
2023-06-14T00:27:23.893Z,2583.00
2023-06-14T00:28:23.871Z,2586.00
2023-06-14T00:29:23.849Z,2592.00
2023-06-14T00:30:23.833Z,2595.00
2023-06-14T00:31:23.821Z,2583.00
2023-06-14T00:32:23.881Z,2574.00
2023-06-14T00:33:23.783Z,2585.00
2023-06-14T00:34:23.757Z,2582.00
2023-06-14T00:35:23.740Z,2566.00
2023-06-14T00:36:23.722Z,2557.00
2023-06-14T00:37:23.706Z,2571.00
2023-06-14T00:38:23.698Z,2564.00
2023-06-14T00:39:23.680Z,2548.00
2023-06-14T00:40:23.697Z,2564.00
2023-06-14T00:41:23.712Z,2567.00
2023-06-14T00:42:23.729Z,2569.00
2023-06-14T00:43:23.753Z,2557.00
2023-06-14T00:44:23.778Z,2561.00
2023-06-14T00:45:23.802Z,2550.00
2023-06-14T00:46:23.872Z,2546.00
2023-06-14T00:47:23.841Z,2565.00
2023-06-14T00:48:23.854Z,2548.00
2023-06-14T00:49:23.869Z,2543.00
2023-06-14T00:50:23.888Z,2542.00
2023-06-14T00:51:23.920Z,2543.00
2023-06-14T00:52:23.918Z,2539.00
2023-06-14T00:53:23.936Z,2546.00
2023-06-14T00:54:23.957Z,2537.00
2023-06-14T00:55:23.976Z,2535.00
2023-06-14T00:56:23.987Z,2539.00
2023-06-14T00:57:23.994Z,2534.00
2023-06-14T00:58:24.034Z,2534.00
2023-06-14T00:59:24.044Z,2523.00
2023-06-14T01:00:24.058Z,2531.00
2023-06-14T01:01:24.119Z,2535.00
2023-06-14T01:02:24.167Z,2519.00
2023-06-14T01:03:24.319Z,2524.00
2023-06-14T01:04:24.126Z,2532.00
2023-06-14T01:05:24.154Z,2518.00
2023-06-14T01:06:24.172Z,2517.00
2023-06-14T01:07:24.195Z,2523.00
2023-06-14T01:08:24.215Z,2518.00
2023-06-14T01:09:24.229Z,2509.00
2023-06-14T01:10:24.263Z,2513.00
2023-06-14T01:11:24.283Z,2496.00
2023-06-14T01:12:24.298Z,2509.00
2023-06-14T01:13:24.320Z,2510.00
2023-06-14T01:14:24.341Z,2505.00
2023-06-14T01:15:24.385Z,2505.00
2023-06-14T01:16:24.466Z,2492.00
2023-06-14T01:17:24.450Z,2497.00
2023-06-14T01:18:24.460Z,2504.00
2023-06-14T01:19:24.471Z,2499.00
2023-06-14T01:20:24.504Z,2498.00
2023-06-14T01:21:24.500Z,2494.00
2023-06-14T01:22:24.524Z,2482.00
2023-06-14T01:23:24.540Z,2491.00
2023-06-14T01:24:24.693Z,2474.00
2023-06-14T01:25:24.608Z,2486.00
2023-06-14T01:26:24.559Z,2486.00
2023-06-14T01:27:24.568Z,2484.00
2023-06-14T01:28:24.554Z,2479.00
2023-06-14T01:29:24.574Z,2478.00
2023-06-14T01:30:24.594Z,2476.00
2023-06-14T01:31:24.605Z,2477.00
2023-06-14T01:32:24.626Z,2479.00
2023-06-14T01:33:24.664Z,2475.00
2023-06-14T01:34:24.701Z,2462.00
2023-06-14T01:35:24.707Z,2472.00
2023-06-14T01:36:24.707Z,2464.00
2023-06-14T01:37:24.710Z,2467.00
2023-06-14T01:38:24.733Z,2460.00
2023-06-14T01:39:24.759Z,2454.00
2023-06-14T01:40:24.773Z,2457.00
2023-06-14T01:41:24.788Z,2469.00
2023-06-14T01:42:24.846Z,2453.00
2023-06-14T01:43:24.833Z,2451.00
2023-06-14T01:44:24.859Z,2451.00
2023-06-14T01:45:24.866Z,2443.00
2023-06-14T01:46:24.901Z,2449.00
2023-06-14T01:47:24.923Z,2453.00
2023-06-14T01:48:24.916Z,2450.00
2023-06-14T01:49:24.938Z,2438.00
2023-06-14T01:50:24.950Z,2443.00
2023-06-14T01:51:24.988Z,2441.00
2023-06-14T01:52:24.982Z,2443.00
2023-06-14T01:53:25.009Z,2431.00
2023-06-14T01:54:25.020Z,2429.00
2023-06-14T01:55:25.037Z,2441.00
2023-06-14T01:56:25.048Z,2432.00
2023-06-14T01:57:25.098Z,2434.00
2023-06-14T01:58:25.128Z,2434.00
2023-06-14T01:59:25.124Z,2427.00
2023-06-14T02:00:25.132Z,2415.00
2023-06-14T02:01:25.189Z,2421.00
2023-06-14T02:02:25.183Z,2399.00
2023-06-14T02:03:25.223Z,2416.00
2023-06-14T02:04:25.204Z,2417.00
2023-06-14T02:05:25.313Z,2410.00
2023-06-14T02:06:25.238Z,2413.00
2023-06-14T02:07:25.280Z,2406.00
2023-06-14T02:08:25.274Z,2412.00
2023-06-14T02:09:25.288Z,2418.00
2023-06-14T02:10:25.332Z,2410.00
2023-06-14T02:11:25.335Z,2411.00
2023-06-14T02:12:25.362Z,2396.00
2023-06-14T02:13:25.389Z,2399.00
2023-06-14T02:14:25.414Z,2394.00
2023-06-14T02:15:25.446Z,2386.00
2023-06-14T02:16:25.489Z,2394.00
2023-06-14T02:17:25.508Z,2395.00
2023-06-14T02:18:25.532Z,2401.00
2023-06-14T02:19:25.542Z,2400.00
2023-06-14T02:20:25.573Z,2385.00
2023-06-14T02:21:25.588Z,2388.00
2023-06-14T02:22:25.612Z,2387.00
2023-06-14T02:23:25.637Z,2378.00
2023-06-14T02:24:25.681Z,2369.00
2023-06-14T02:25:25.708Z,2391.00
2023-06-14T02:26:25.712Z,2387.00
2023-06-14T02:27:25.732Z,2387.00
2023-06-14T02:28:25.766Z,2380.00
2023-06-14T02:29:25.820Z,2381.00
2023-06-14T02:30:25.818Z,2369.00
2023-06-14T02:31:25.878Z,2367.00
2023-06-14T02:32:25.908Z,2383.00
2023-06-14T02:33:25.899Z,2362.00
2023-06-14T02:34:25.921Z,2367.00
2023-06-14T02:35:25.935Z,2367.00
2023-06-14T02:36:25.957Z,2367.00
2023-06-14T02:37:25.976Z,2372.00
2023-06-14T02:38:26.006Z,2354.00
2023-06-14T02:39:26.013Z,2365.00
2023-06-14T02:40:26.052Z,2368.00
2023-06-14T02:41:26.083Z,2360.00
2023-06-14T02:42:26.107Z,2366.00
2023-06-14T02:43:26.147Z,2357.00
2023-06-14T02:44:26.163Z,2346.00
2023-06-14T02:45:26.185Z,2352.00
2023-06-14T02:46:26.210Z,2349.00
2023-06-14T02:47:26.239Z,2351.00
2023-06-14T02:48:26.292Z,2347.00
2023-06-14T02:49:26.254Z,2347.00
2023-06-14T02:50:26.282Z,2345.00
2023-06-14T02:51:26.306Z,2341.00
2023-06-14T02:52:26.327Z,2333.00
2023-06-14T02:53:26.351Z,2341.00
2023-06-14T02:54:26.393Z,2334.00
2023-06-14T02:55:26.398Z,2329.00
2023-06-14T02:56:26.431Z,2332.00
2023-06-14T02:57:26.468Z,2340.00
2023-06-14T02:58:26.486Z,2336.00
2023-06-14T02:59:26.509Z,2329.00
2023-06-14T03:00:26.537Z,2327.00
2023-06-14T03:01:26.618Z,2314.00
2023-06-14T03:02:26.638Z,2330.00
2023-06-14T03:03:26.649Z,2332.00
2023-06-14T03:04:26.618Z,2318.00
2023-06-14T03:05:26.650Z,2305.00
2023-06-14T03:06:26.666Z,2305.00
2023-06-14T03:07:26.702Z,2317.00
2023-06-14T03:08:26.712Z,2308.00
2023-06-14T03:09:26.752Z,2301.00
2023-06-14T03:10:26.778Z,2307.00
2023-06-14T03:11:26.799Z,2301.00
2023-06-14T03:12:26.834Z,2302.00
2023-06-14T03:13:26.855Z,2310.00
2023-06-14T03:14:26.885Z,2309.00
2023-06-14T03:15:26.915Z,2303.00
2023-06-14T03:16:26.989Z,2297.00
2023-06-14T03:17:26.988Z,2297.00
2023-06-14T03:18:27.970Z,2302.00
2023-06-14T03:19:27.015Z,2303.00
2023-06-14T03:20:27.074Z,2300.00
2023-06-14T03:21:27.141Z,2291.00
2023-06-14T03:22:27.265Z,2292.00
2023-06-14T03:23:27.147Z,2293.00
2023-06-14T03:24:27.289Z,2291.00
2023-06-14T03:25:27.184Z,2298.00
2023-06-14T03:26:27.263Z,2281.00
2023-06-14T03:27:27.250Z,2280.00
2023-06-14T03:28:27.324Z,2281.00
2023-06-14T03:29:27.323Z,2276.00
2023-06-14T03:30:27.344Z,2281.00
2023-06-14T03:31:27.494Z,2286.00
2023-06-14T03:32:27.483Z,2274.00
2023-06-14T03:33:27.453Z,2269.00
2023-06-14T03:34:27.484Z,2272.00
2023-06-14T03:35:27.522Z,2265.00
2023-06-14T03:36:27.545Z,2267.00
2023-06-14T03:37:27.568Z,2283.00
2023-06-14T03:38:27.600Z,2274.00
2023-06-14T03:39:27.621Z,2277.00
2023-06-14T03:40:27.649Z,2254.00
2023-06-14T03:41:27.670Z,2263.00
2023-06-14T03:42:27.690Z,2264.00
2023-06-14T03:43:27.725Z,2246.00
2023-06-14T03:44:27.764Z,2271.00
2023-06-14T03:45:27.784Z,2247.00
2023-06-14T03:46:27.821Z,2241.00
2023-06-14T03:47:27.928Z,2247.00
2023-06-14T03:48:27.996Z,2253.00
2023-06-14T03:49:27.924Z,2250.00
2023-06-14T03:50:27.945Z,2250.00
2023-06-14T03:51:27.996Z,2247.00
2023-06-14T03:52:28.017Z,2239.00
2023-06-14T03:53:28.051Z,2242.00
2023-06-14T03:56:28.065Z,2250.00
2023-06-14T03:57:28.039Z,2251.00
2023-06-14T03:58:28.016Z,2252.00
2023-06-14T03:59:28.018Z,2243.00
2023-06-14T04:00:27.975Z,2255.00
2023-06-14T04:01:27.970Z,2237.00
2023-06-14T04:02:28.003Z,2230.00
2023-06-14T04:03:27.969Z,2236.00
2023-06-14T04:04:27.977Z,2248.00
2023-06-14T04:05:27.952Z,2236.00
2023-06-14T04:06:27.867Z,2229.00
2023-06-14T04:07:27.820Z,2231.00
2023-06-14T04:08:27.819Z,2230.00
2023-06-14T04:09:27.796Z,2227.00
2023-06-14T04:10:27.779Z,2235.00
2023-06-14T04:11:27.754Z,2227.00
2023-06-14T04:12:27.733Z,2225.00
2023-06-14T04:13:27.730Z,2231.00
2023-06-14T04:14:27.698Z,2216.00
2023-06-14T04:15:27.976Z,2214.00
2023-06-14T04:16:27.787Z,2218.00
2023-06-14T04:17:27.695Z,2209.00
2023-06-14T04:18:27.622Z,2211.00
2023-06-14T04:19:27.599Z,2220.00
2023-06-14T04:20:27.583Z,2206.00
2023-06-14T04:21:27.573Z,2199.00
2023-06-14T04:22:27.557Z,2195.00
2023-06-14T04:23:27.512Z,2194.00
2023-06-14T04:24:27.515Z,2207.00
2023-06-14T04:25:27.945Z,2206.00
2023-06-14T04:26:27.707Z,2197.00
2023-06-14T04:27:27.494Z,2197.00
2023-06-14T04:28:27.424Z,2203.00
2023-06-14T04:29:27.450Z,2186.00
2023-06-14T04:30:27.569Z,2198.00
2023-06-14T04:31:27.554Z,2199.00
2023-06-14T04:32:27.655Z,2183.00
2023-06-14T04:33:27.692Z,2182.00
2023-06-14T04:34:27.612Z,2185.00
2023-06-14T04:35:27.652Z,2197.00
2023-06-14T04:36:27.687Z,2186.00
2023-06-14T04:37:27.710Z,2192.00
2023-06-14T04:38:27.744Z,2184.00
2023-06-14T04:39:27.784Z,2172.00
2023-06-14T04:40:27.822Z,2182.00
2023-06-14T04:41:27.857Z,2173.00
2023-06-14T04:42:27.883Z,2181.00
2023-06-14T04:43:28.773Z,2178.00
2023-06-14T04:44:27.953Z,2175.00
2023-06-14T04:45:27.993Z,2168.00
2023-06-14T04:46:28.139Z,2172.00
2023-06-14T04:47:28.098Z,2164.00
2023-06-14T04:48:28.091Z,2166.00
2023-06-14T04:49:28.260Z,2157.00
2023-06-14T04:50:28.163Z,2163.00
2023-06-14T04:51:28.184Z,2162.00
2023-06-14T04:52:28.217Z,2155.00
2023-06-14T04:53:28.244Z,2160.00
2023-06-14T04:54:28.271Z,2148.00
2023-06-14T04:55:28.296Z,2151.00
2023-06-14T04:56:28.327Z,2150.00
2023-06-14T04:57:28.353Z,2154.00
2023-06-14T04:58:28.387Z,2142.00
2023-06-14T04:59:28.416Z,2146.00
2023-06-14T05:00:28.438Z,2155.00
2023-06-14T05:01:28.499Z,2141.00
2023-06-14T05:02:28.509Z,2147.00
2023-06-14T05:03:28.669Z,2145.00
2023-06-14T05:04:28.568Z,2140.00
2023-06-14T05:05:28.608Z,2145.00
2023-06-14T05:06:28.639Z,2139.00
2023-06-14T05:07:28.660Z,2130.00
2023-06-14T05:08:28.689Z,2128.00
2023-06-14T05:09:28.729Z,2127.00
2023-06-14T05:10:28.761Z,2136.00
2023-06-14T05:11:28.803Z,2124.00
2023-06-14T05:12:28.855Z,2130.00
2023-06-14T05:13:28.876Z,2116.00
2023-06-14T05:14:28.900Z,2125.00
2023-06-14T05:15:28.949Z,2109.00
2023-06-14T05:16:29.049Z,2134.00
2023-06-14T05:17:29.179Z,2133.00
2023-06-14T05:18:29.047Z,2138.00
2023-06-14T05:19:29.082Z,2132.00
2023-06-14T05:20:29.139Z,2145.00
2023-06-14T05:21:29.180Z,2136.00
2023-06-14T05:22:29.228Z,2127.00
2023-06-14T05:23:29.253Z,2126.00
2023-06-14T05:24:29.433Z,2144.00
2023-06-14T05:25:29.375Z,2132.00
2023-06-14T05:26:29.412Z,2145.00
2023-06-14T05:27:29.561Z,2147.00
2023-06-14T05:28:29.494Z,2141.00
2023-06-14T05:29:31.002Z,2141.00
2023-06-14T05:30:29.594Z,2139.00
2023-06-14T05:31:29.663Z,2147.00
2023-06-14T05:32:29.712Z,2170.00
2023-06-14T05:33:29.815Z,2179.00
2023-06-14T05:34:29.762Z,2179.00
2023-06-14T05:35:29.812Z,2186.00
2023-06-14T05:36:29.856Z,2185.00
2023-06-14T05:37:29.920Z,2176.00
2023-06-14T05:38:29.927Z,2194.00
2023-06-14T05:39:29.957Z,2204.00
2023-06-14T05:40:29.995Z,2214.00
2023-06-14T05:41:30.040Z,2201.00
2023-06-14T05:42:30.074Z,2224.00
2023-06-14T05:43:30.095Z,2207.00
2023-06-14T05:44:30.121Z,2219.00
2023-06-14T05:45:30.148Z,2209.00
2023-06-14T05:46:30.304Z,2227.00
2023-06-14T05:47:30.226Z,2220.00
2023-06-14T05:48:32.512Z,2216.00
2023-06-14T05:49:30.215Z,2218.00
2023-06-14T05:50:30.193Z,2234.00
2023-06-14T05:51:30.166Z,2210.00
2023-06-14T05:52:30.170Z,2239.00
2023-06-14T05:53:30.154Z,2224.00
2023-06-14T05:54:30.121Z,2214.00
2023-06-14T05:55:30.100Z,2230.00
2023-06-14T05:56:30.076Z,2220.00
2023-06-14T05:57:30.057Z,2216.00
2023-06-14T05:58:30.039Z,2221.00
2023-06-14T05:59:30.014Z,2218.00
2023-06-14T06:00:30.011Z,2225.00
2023-06-14T06:01:29.997Z,2226.00
2023-06-14T06:02:30.056Z,2214.00
2023-06-14T06:03:29.998Z,2223.00
2023-06-14T06:04:30.124Z,2227.00
2023-06-14T06:05:29.918Z,2226.00
2023-06-14T06:06:29.918Z,2232.00
2023-06-14T06:07:29.880Z,2229.00
2023-06-14T06:08:29.866Z,2226.00
2023-06-14T06:09:29.839Z,2227.00
2023-06-14T06:10:29.871Z,2221.00
2023-06-14T06:11:37.556Z,2218.00
2023-06-14T06:12:30.779Z,2220.00
2023-06-14T06:13:29.761Z,2223.00
2023-06-14T06:14:29.738Z,2227.00
2023-06-14T06:15:29.724Z,2230.00
2023-06-14T06:16:29.769Z,2252.00
2023-06-14T06:17:38.764Z,2244.00
2023-06-14T06:18:30.709Z,2244.00
2023-06-14T06:19:29.662Z,2243.00
2023-06-14T06:20:30.586Z,2231.00
2023-06-14T06:21:29.597Z,2237.00
2023-06-14T06:22:29.575Z,2232.00
2023-06-14T06:23:29.562Z,2233.00
2023-06-14T06:24:29.645Z,2228.00
2023-06-14T06:25:29.516Z,2234.00
2023-06-14T06:26:29.487Z,2223.00
2023-06-14T06:27:29.471Z,2230.00
2023-06-14T06:28:29.448Z,2240.00
2023-06-14T06:29:29.419Z,2239.00
2023-06-14T06:30:29.424Z,2253.00
2023-06-14T06:31:29.413Z,2183.00
2023-06-14T06:32:29.389Z,2238.00
2023-06-14T06:33:29.314Z,2267.00
2023-06-14T06:34:29.298Z,2324.00
2023-06-14T06:35:29.274Z,2400.00
2023-06-14T06:36:29.303Z,2426.00
2023-06-14T06:37:29.225Z,2426.00
2023-06-14T06:38:29.208Z,2446.00
2023-06-14T06:39:29.185Z,2411.00
2023-06-14T06:40:29.280Z,2414.00
2023-06-14T06:41:29.154Z,2414.00
2023-06-14T06:42:29.121Z,2449.00
2023-06-14T06:43:29.098Z,2506.00
2023-06-14T06:44:29.080Z,2561.00
2023-06-14T06:45:29.084Z,2592.00
2023-06-14T06:46:29.088Z,2624.00
2023-06-14T06:47:29.104Z,2637.00
2023-06-14T06:48:29.076Z,2691.00
2023-06-14T06:49:29.069Z,2716.00
2023-06-14T06:50:29.085Z,2753.00
2023-06-14T06:51:29.093Z,2764.00
2023-06-14T06:52:29.111Z,2802.00
2023-06-14T06:53:39.367Z,2842.00
2023-06-14T06:54:30.098Z,2844.00
2023-06-14T06:55:29.080Z,2855.00
2023-06-14T06:56:29.032Z,2882.00
2023-06-14T06:57:28.988Z,2933.00
2023-06-14T06:58:28.960Z,3006.00
2023-06-14T06:59:28.925Z,3042.00
2023-06-14T07:00:29.078Z,3073.00
2023-06-14T07:01:28.898Z,3094.00
2023-06-14T07:02:28.867Z,3115.00
2023-06-14T07:03:28.811Z,3139.00
2023-06-14T07:04:28.785Z,3151.00
2023-06-14T07:05:28.841Z,3178.00
2023-06-14T07:06:28.839Z,3161.00
2023-06-14T07:07:28.832Z,3186.00
2023-06-14T07:08:28.861Z,3205.00
2023-06-14T07:09:28.882Z,3226.00
2023-06-14T07:10:28.959Z,3232.00
2023-06-14T07:11:28.926Z,3244.00
2023-06-14T07:12:28.944Z,3249.00
2023-06-14T07:13:28.970Z,3247.00
2023-06-14T07:14:29.006Z,3259.00
2023-06-14T07:15:29.000Z,3265.00
2023-06-14T07:16:29.050Z,3273.00
2023-06-14T07:17:29.134Z,3283.00
2023-06-14T07:18:29.051Z,3226.00
2023-06-14T07:19:29.079Z,2875.00
2023-06-14T07:20:29.115Z,2404.00
2023-06-14T07:21:29.119Z,2176.00
2023-06-14T07:22:29.129Z,2020.00
2023-06-14T07:23:29.134Z,1908.00
2023-06-14T07:24:29.366Z,1775.00
2023-06-14T07:25:29.158Z,1636.00
2023-06-14T07:26:29.149Z,1651.00
2023-06-14T07:27:29.163Z,1574.00
2023-06-14T07:28:29.171Z,1529.00
2023-06-14T07:29:29.175Z,1534.00
2023-06-14T07:30:29.202Z,1517.00
2023-06-14T07:31:29.201Z,1508.00
2023-06-14T07:32:29.286Z,1524.00
2023-06-14T07:33:29.384Z,1549.00
2023-06-14T07:34:29.245Z,1565.00
2023-06-14T07:35:29.265Z,1556.00
2023-06-14T07:36:29.268Z,1576.00
2023-06-14T07:37:29.326Z,1602.00
2023-06-14T07:38:29.288Z,1597.00
2023-06-14T07:39:29.307Z,1562.00
2023-06-14T07:40:29.305Z,1520.00
2023-06-14T07:41:29.302Z,1504.00
2023-06-14T07:42:29.316Z,1497.00
2023-06-14T07:43:29.322Z,1468.00
2023-06-14T07:44:29.324Z,1388.00
2023-06-14T07:45:29.350Z,1358.00
2023-06-14T07:46:29.352Z,1367.00
2023-06-14T07:47:29.416Z,1349.00
2023-06-14T07:48:29.734Z,1321.00
2023-06-14T07:49:29.381Z,1276.00
2023-06-14T07:50:29.393Z,1245.00
2023-06-14T07:51:29.404Z,1218.00
2023-06-14T07:52:29.488Z,1204.00
2023-06-14T07:53:30.398Z,1201.00
2023-06-14T07:54:29.373Z,1166.00
2023-06-14T07:55:34.097Z,1122.00
2023-06-14T07:56:30.340Z,1100.00
2023-06-14T07:57:29.307Z,1056.00
2023-06-14T07:58:29.280Z,1030.00
2023-06-14T07:59:29.274Z,1015.00
2023-06-14T08:00:29.833Z,1001.00
2023-06-14T08:01:29.243Z,949.00
2023-06-14T08:02:29.353Z,917.00
2023-06-14T08:03:29.229Z,894.00
2023-06-14T08:04:29.136Z,913.00
2023-06-14T08:05:29.168Z,884.00
2023-06-14T08:06:29.128Z,852.00
2023-06-14T08:07:29.098Z,799.00
2023-06-14T08:08:29.248Z,754.00
2023-06-14T08:09:29.184Z,694.00
2023-06-14T08:10:29.142Z,655.00
2023-06-14T08:11:29.140Z,630.00
2023-06-14T08:12:29.172Z,621.00
2023-06-14T08:13:29.194Z,635.00
2023-06-14T08:14:29.251Z,643.00
2023-06-14T08:15:29.207Z,687.00
2023-06-14T08:16:29.220Z,738.00
2023-06-14T08:17:29.250Z,789.00
2023-06-14T08:18:29.236Z,792.00
2023-06-14T08:19:29.230Z,794.00
2023-06-14T08:20:29.320Z,797.00
2023-06-14T08:21:29.281Z,740.00
2023-06-14T08:22:29.310Z,702.00
2023-06-14T08:23:29.353Z,708.00
2023-06-14T08:24:29.363Z,699.00
2023-06-14T08:25:29.373Z,703.00
2023-06-14T08:26:29.476Z,658.00
2023-06-14T08:27:30.908Z,611.00
2023-06-14T08:28:29.404Z,541.00
2023-06-14T08:29:29.482Z,481.00
2023-06-14T08:30:29.470Z,436.00
2023-06-14T08:31:29.509Z,400.00
2023-06-14T08:32:29.770Z,400.00
2023-06-14T08:33:29.696Z,400.00
2023-06-14T08:34:29.611Z,400.00
2023-06-14T08:35:29.662Z,400.00
2023-06-14T08:36:29.679Z,400.00
2023-06-14T08:37:29.724Z,424.00
2023-06-14T08:38:29.773Z,464.00
2023-06-14T08:39:29.785Z,500.00
2023-06-14T08:40:29.865Z,500.00
2023-06-14T08:41:29.849Z,492.00
2023-06-14T08:42:32.504Z,477.00
2023-06-14T08:43:29.857Z,484.00
2023-06-14T08:44:30.839Z,485.00
2023-06-14T08:45:30.907Z,479.00
2023-06-14T08:46:29.785Z,476.00
2023-06-14T08:47:29.798Z,471.00
2023-06-14T08:48:29.740Z,454.00
2023-06-14T08:49:29.788Z,500.00
2023-06-14T08:50:29.823Z,509.00
2023-06-14T08:51:29.672Z,497.00
2023-06-14T08:52:29.654Z,509.00
2023-06-14T08:53:29.630Z,505.00
2023-06-14T08:54:29.613Z,501.00
2023-06-14T08:55:29.637Z,500.00
2023-06-14T08:56:29.585Z,502.00
2023-06-14T08:57:29.648Z,515.00
2023-06-14T08:58:29.660Z,522.00
2023-06-14T08:59:29.487Z,520.00
2023-06-14T09:00:29.502Z,522.00
2023-06-14T09:01:29.439Z,502.00
2023-06-14T09:02:29.397Z,535.00
2023-06-14T09:03:29.383Z,531.00
2023-06-14T09:04:29.348Z,544.00
2023-06-14T09:05:29.458Z,534.00
2023-06-14T09:06:29.340Z,540.00
2023-06-14T09:07:29.269Z,553.00
2023-06-14T09:08:29.237Z,574.00
2023-06-14T09:09:29.221Z,560.00
2023-06-14T09:10:29.548Z,562.00
2023-06-14T09:11:29.137Z,577.00
2023-06-14T09:12:29.112Z,570.00
2023-06-14T09:13:31.677Z,575.00
2023-06-14T09:14:29.045Z,559.00
2023-06-14T09:15:29.001Z,576.00
2023-06-14T09:16:28.990Z,567.00
2023-06-14T09:17:29.030Z,581.00
2023-06-14T09:18:28.920Z,591.00
2023-06-14T09:19:29.377Z,637.00
2023-06-14T09:20:28.835Z,650.00
2023-06-14T09:21:30.762Z,788.00
2023-06-14T09:22:28.791Z,796.00
2023-06-14T09:23:28.890Z,850.00
2023-06-14T09:24:29.012Z,963.00
2023-06-14T09:25:38.092Z,1167.00
2023-06-14T09:26:29.657Z,810.00
2023-06-14T09:27:28.618Z,886.00
2023-06-14T09:28:28.605Z,1024.00
2023-06-14T09:29:28.550Z,1282.00
2023-06-14T09:30:28.554Z,1637.00
2023-06-14T09:31:28.517Z,1682.00
2023-06-14T09:32:28.532Z,1716.00
2023-06-14T09:33:28.438Z,1733.00
2023-06-14T09:34:28.389Z,1740.00
2023-06-14T09:35:28.397Z,1797.00
2023-06-14T09:36:28.358Z,1836.00
2023-06-14T09:37:28.280Z,1851.00
2023-06-14T09:38:28.258Z,1822.00
2023-06-14T09:39:28.265Z,1838.00
2023-06-14T09:40:28.261Z,1800.00
2023-06-14T09:41:28.252Z,1794.00
2023-06-14T09:42:28.269Z,1789.00
2023-06-14T09:43:28.287Z,1800.00
2023-06-14T09:44:28.276Z,1792.00
2023-06-14T09:45:28.282Z,1780.00
2023-06-14T09:46:28.327Z,1880.00
2023-06-14T09:47:28.367Z,1914.00
2023-06-14T09:48:28.346Z,1868.00
2023-06-14T09:49:29.690Z,1828.00
2023-06-14T09:50:28.246Z,1750.00
2023-06-14T09:51:28.208Z,1789.00
2023-06-14T09:52:28.173Z,1775.00
2023-06-14T09:53:28.147Z,1732.00
2023-06-14T09:54:28.198Z,1768.00
2023-06-14T09:55:28.151Z,1784.00
2023-06-14T09:56:28.033Z,1748.00
2023-06-14T09:57:27.998Z,1758.00
2023-06-14T09:58:27.966Z,1778.00
2023-06-14T09:59:27.955Z,1683.00
2023-06-14T10:00:27.899Z,1709.00
2023-06-14T10:01:27.872Z,1714.00
2023-06-14T10:02:27.841Z,1695.00
2023-06-14T10:03:29.264Z,1702.00
2023-06-14T10:04:27.768Z,1695.00
2023-06-14T10:05:27.732Z,1702.00
2023-06-14T10:06:27.695Z,1692.00
2023-06-14T10:07:27.660Z,1716.00
2023-06-14T10:08:27.626Z,1723.00
2023-06-14T10:09:29.352Z,1719.00
2023-06-14T10:10:28.319Z,1720.00
2023-06-14T10:11:27.533Z,1723.00
2023-06-14T10:12:27.503Z,1720.00
2023-06-14T10:13:27.461Z,1642.00
2023-06-14T10:14:27.418Z,1547.00
2023-06-14T10:15:27.395Z,1598.00
2023-06-14T10:16:27.400Z,1645.00
2023-06-14T10:17:27.373Z,1714.00
2023-06-14T10:18:27.299Z,1803.00
2023-06-14T10:19:27.261Z,1828.00
2023-06-14T10:20:27.233Z,1860.00
2023-06-14T10:21:29.194Z,1928.00
2023-06-14T10:22:27.187Z,1929.00
2023-06-14T10:23:27.152Z,1938.00
2023-06-14T10:24:27.164Z,1954.00
2023-06-14T10:25:27.080Z,1965.00
2023-06-14T10:26:27.027Z,1985.00
2023-06-14T10:27:27.037Z,2022.00
2023-06-14T10:28:26.962Z,2011.00
2023-06-14T10:29:26.950Z,1996.00
2023-06-14T10:30:26.929Z,2002.00
2023-06-14T10:31:26.888Z,2011.00
2023-06-14T10:32:27.020Z,2126.00
2023-06-14T10:33:26.832Z,2089.00
2023-06-14T10:34:27.088Z,2030.00
2023-06-14T10:35:26.709Z,1991.00
2023-06-14T10:36:26.671Z,1991.00
2023-06-14T10:37:26.655Z,2056.00
2023-06-14T10:38:26.601Z,2068.00
2023-06-14T10:39:26.569Z,2085.00
2023-06-14T10:40:26.566Z,2088.00
2023-06-14T10:41:26.490Z,2071.00
2023-06-14T10:42:26.449Z,2023.00
2023-06-14T10:43:26.421Z,2033.00
2023-06-14T10:44:26.377Z,2048.00
2023-06-14T10:45:26.335Z,2033.00
2023-06-14T10:46:26.444Z,2056.00
2023-06-14T10:47:26.324Z,2041.00
2023-06-14T10:48:26.231Z,2049.00
2023-06-14T10:49:26.222Z,2061.00
2023-06-14T10:50:26.144Z,2089.00
2023-06-14T10:51:26.102Z,2149.00
2023-06-14T10:52:26.054Z,2169.00
2023-06-14T10:53:26.018Z,2219.00
2023-06-14T10:54:25.983Z,2212.00
2023-06-14T10:55:25.939Z,2227.00
2023-06-14T10:56:25.885Z,2270.00
2023-06-14T10:57:25.906Z,2264.00
2023-06-14T10:58:25.809Z,2227.00
2023-06-14T10:59:25.777Z,2205.00
2023-06-14T11:00:25.740Z,2204.00
2023-06-14T11:01:25.712Z,2217.00
2023-06-14T11:02:25.647Z,2278.00
2023-06-14T11:03:25.623Z,2330.00
2023-06-14T11:04:25.558Z,2307.00
2023-06-14T11:05:25.510Z,2286.00
2023-06-14T11:06:25.472Z,2268.00
2023-06-14T11:07:25.436Z,2238.00
2023-06-14T11:08:25.391Z,2195.00
2023-06-14T11:09:25.353Z,2148.00
2023-06-14T11:10:25.309Z,2135.00
2023-06-14T11:11:25.272Z,2097.00
2023-06-14T11:12:25.239Z,2049.00
2023-06-14T11:13:25.226Z,2074.00
2023-06-14T11:14:25.155Z,2118.00
2023-06-14T11:15:25.114Z,2132.00
2023-06-14T11:16:25.102Z,2124.00
2023-06-14T11:17:25.042Z,2139.00
2023-06-14T11:18:25.925Z,2152.00
2023-06-14T11:19:24.961Z,2207.00
2023-06-14T11:20:26.490Z,2236.00
2023-06-14T11:21:24.868Z,2236.00
2023-06-14T11:22:24.821Z,2239.00
2023-06-14T11:23:24.784Z,2258.00
2023-06-14T11:24:24.774Z,2291.00
2023-06-14T11:25:24.692Z,2359.00
2023-06-14T11:26:24.650Z,2349.00
2023-06-14T11:27:24.605Z,2377.00
2023-06-14T11:28:24.574Z,2395.00
2023-06-14T11:29:24.529Z,2376.00
2023-06-14T11:30:24.511Z,2417.00
2023-06-14T11:31:24.587Z,2430.00
2023-06-14T11:32:24.482Z,2435.00
2023-06-14T11:33:24.361Z,2474.00
2023-06-14T11:34:24.326Z,2474.00
2023-06-14T11:35:24.262Z,2488.00
2023-06-14T11:36:24.230Z,2516.00
2023-06-14T11:37:24.177Z,2543.00
2023-06-14T11:38:24.133Z,2555.00
2023-06-14T11:39:24.086Z,2571.00
2023-06-14T11:40:24.068Z,2593.00
2023-06-14T11:41:24.059Z,2605.00
2023-06-14T11:42:23.987Z,2616.00
2023-06-14T11:43:23.937Z,2653.00
2023-06-14T11:44:23.900Z,2673.00
2023-06-14T11:45:23.865Z,2672.00
2023-06-14T11:46:23.859Z,2694.00
2023-06-14T11:47:23.817Z,2720.00
2023-06-14T11:48:23.746Z,2722.00
2023-06-14T11:49:23.714Z,2768.00
2023-06-14T11:50:24.437Z,2782.00
2023-06-14T11:51:23.618Z,2785.00
2023-06-14T11:52:23.593Z,2798.00
2023-06-14T11:53:23.555Z,2814.00
2023-06-14T11:54:23.531Z,2832.00
2023-06-14T11:55:23.484Z,2867.00
2023-06-14T11:56:23.465Z,2880.00
2023-06-14T11:57:23.422Z,2885.00
2023-06-14T11:58:23.383Z,2913.00
2023-06-14T11:59:23.346Z,2920.00
2023-06-14T12:00:23.324Z,2939.00
2023-06-14T12:01:23.274Z,2954.00
2023-06-14T12:02:24.895Z,2962.00
2023-06-14T12:03:23.241Z,2976.00
2023-06-14T12:04:23.181Z,2991.00
2023-06-14T12:05:23.159Z,2997.00
2023-06-14T12:06:23.103Z,3006.00
2023-06-14T12:07:23.068Z,3019.00
2023-06-14T12:08:24.194Z,3014.00
2023-06-14T12:09:23.032Z,3052.00
2023-06-14T12:10:23.063Z,3059.00